Aeroporto :
LOGIN :

Iscrizione | Disclaimer

   EN    FR    IT 

 










Sommario :    VFR   VFR Marginale   IFR   IFR Intensivo   IFR Molto Intensivo
Visibilità : 
Base nubi : 
>= 8 km
>= 3000ft
5 / 8 km
1000 / 3000 ft
1500m / 5 km
500 / 1000 ft
800 / 1500m
200 / 500 ft
< 800m
< 200 ft
Simboli :   Temporali  Nebbia  Neve Forte  Precipitazioni Forti  Vento > 20 kt
SIGMETs :   Varie  Temporali  Ghiacco  Turbolenza  Onda orograficha  Ceneri Vulcaniche







- Altitudine del aeroporto : 1411 ft
- Codice IATA : SZG


LOWS - Salzburg

ULTIMO METAR :
  • 200820Z 20003KT 130V240 9999 FEW040 BKN065 05/M01 Q1033 NOSIG

METARs OBSOLETI :
  • 200750Z 18004KT 150V210 9999 FEW040 BKN065 04/M00 Q1034 NOSIG
  • 200720Z 16004KT 9999 BKN065 03/M01 Q1033 NOSIG
  • 200650Z 17004KT 9999 BKN065 02/M01 Q1033 NOSIG
  • 200620Z 18004KT 9999 BKN065 01/M01 Q1033 NOSIG
  • 200550Z 15004KT 9999 BKN065 01/M01 Q1032 NOSIG

TAF TAF LOWS
Valido dal 20 a 06 ore il 21 a 06 ore UTC


200515Z 2006/2106 16005KT 9999 BKN060 TX09/2013Z TNM02/2104Z
BECMG 2007/2009 32006KT
TEMPO 2011/2016 02007KT SCT060
BECMG 2016/2018 16005KT CAVOK
Nessun NOTAM noto per questo aeroporto.



MetMap, La meteo Aeronautica in un colpo d'occhio ! - Copyright ORBIFLY Dicembre 2007 - Disclaimer

ORBIFLY MET'MAP TEAM :

Programmazione e sviluppo : Alexandra Zaïnal
Concezione e sviluppo : Baudouin d'Aumeries
Co-Programmazione e sviluppo : Marc-Olivier Méhu
Supporto tecnico e logistico : Manuel Goepfert
Aiuto per la traduzione : Arnaldo La Scala

Contatto : metmap@orbifly.com




FONTI E CREDITI :

   NOAA